Time;durP1;ratioP1;P1;durP2;ratioP2;P2;SDS_P1;SDS_P2;PMS_P1;PMS_P2;Temp;Humidity;BMP_temperature;BMP_pressure;BME280_temperature;BME280_humidity;BME280_pressure;Samples;Min_cycle;Max_cycle;Signal;HPM_P1;HPM_P2
2022/02/23 00:01:19;;;;;;;5.93;1.02;;;8.70;99.90;;;;;;4975068;28;20027;-80
2022/02/23 00:03:44;;;;;;;6.30;1.05;;;8.50;99.90;;;;;;4974457;28;20034;-80
2022/02/23 00:06:10;;;;;;;5.13;1.00;;;8.50;99.90;;;;;;4973998;28;20035;-80
2022/02/23 00:08:36;;;;;;;5.70;1.10;;;8.80;99.90;;;;;;4973597;28;20088;-80
2022/02/23 00:11:02;;;;;;;7.93;1.58;;;8.40;99.90;;;;;;4974894;28;20027;-78
2022/02/23 00:13:28;;;;;;;6.28;1.15;;;8.60;99.90;;;;;;4975186;28;20499;-80
2022/02/23 00:15:57;;;;;;;5.60;1.60;;;9.70;99.90;;;;;;4974686;28;20050;-79
2022/02/23 00:18:22;;;;;;;7.20;1.65;;;8.80;99.90;;;;;;4976147;28;20472;-80
2022/02/23 00:20:49;;;;;;;4.18;1.10;;;9.70;99.90;;;;;;4974969;28;20041;-80
2022/02/23 00:23:15;;;;;;;9.80;1.58;;;8.70;99.90;;;;;;4955626;28;20581;-80
2022/02/23 00:25:41;;;;;;;4.38;1.38;;;8.90;99.90;;;;;;4974563;28;20027;-80
2022/02/23 00:28:07;;;;;;;5.47;1.42;;;8.70;99.90;;;;;;4974196;28;20031;-80
2022/02/23 00:30:32;;;;;;;5.82;1.17;;;9.00;99.90;;;;;;4973781;28;20577;-80
2022/02/23 00:32:58;;;;;;;5.45;1.88;;;8.90;99.90;;;;;;4973181;28;20039;-79
2022/02/23 00:35:24;;;;;;;11.82;1.70;;;9.40;99.90;;;;;;4974531;28;20023;-80
2022/02/23 00:37:49;;;;;;;4.85;1.20;;;8.90;99.90;;;;;;4973851;28;20035;-81
2022/02/23 00:40:15;;;;;;;4.05;1.02;;;8.70;99.90;;;;;;4973157;28;20515;-79
2022/02/23 00:42:41;;;;;;;6.00;2.42;;;8.60;99.90;;;;;;4973646;28;20031;-80
2022/02/23 00:45:07;;;;;;;5.88;1.20;;;8.70;99.90;;;;;;4973807;28;20062;-80
2022/02/23 00:47:32;;;;;;;7.95;1.38;;;8.80;99.90;;;;;;4974369;28;20038;-81
2022/02/23 00:49:58;;;;;;;6.82;1.67;;;8.90;99.90;;;;;;4973764;28;20037;-80
2022/02/23 00:52:23;;;;;;;6.35;1.33;;;8.70;99.90;;;;;;4973533;28;20027;-80
2022/02/23 00:54:49;;;;;;;9.75;2.25;;;8.30;99.90;;;;;;4973719;28;20086;-80
2022/02/23 00:57:15;;;;;;;5.05;1.05;;;8.70;99.90;;;;;;4956535;28;20081;-80
2022/02/23 00:59:42;;;;;;;9.38;1.85;;;9.20;99.90;;;;;;4962558;28;20034;-80
2022/02/23 01:02:08;;;;;;;8.38;1.63;;;8.30;99.90;;;;;;4956759;28;20031;-81
2022/02/23 01:04:33;;;;;;;9.15;1.60;;;8.30;99.90;;;;;;4975929;28;20035;-80
2022/02/23 01:06:59;;;;;;;6.90;1.60;;;8.30;99.90;;;;;;4975285;28;20031;-80
2022/02/23 01:09:24;;;;;;;7.30;1.27;;;8.20;99.90;;;;;;4975300;28;20038;-80
2022/02/23 01:11:50;;;;;;;6.20;1.73;;;8.40;99.90;;;;;;4976073;28;20054;-81
2022/02/23 01:14:16;;;;;;;8.88;1.83;;;8.20;99.90;;;;;;4976411;28;20031;-81
2022/02/23 01:16:42;;;;;;;8.77;1.58;;;8.00;99.90;;;;;;4975719;28;20030;-81
2022/02/23 01:19:08;;;;;;;10.50;1.50;;;7.80;99.90;;;;;;4972358;28;20023;-81
2022/02/23 01:21:34;;;;;;;5.78;0.77;;;7.60;99.90;;;;;;4972902;28;20035;-81
2022/02/23 01:23:59;;;;;;;3.25;0.60;;;7.40;99.90;;;;;;4972988;28;20042;-81
2022/02/23 01:26:25;;;;;;;7.85;1.52;;;7.20;99.90;;;;;;4973078;28;20080;-80
2022/02/23 01:28:51;;;;;;;5.07;1.10;;;8.20;99.90;;;;;;4972686;28;20065;-81
2022/02/23 01:31:16;;;;;;;5.85;0.93;;;6.90;99.90;;;;;;4973670;28;20096;-81
2022/02/23 01:33:42;;;;;;;8.82;1.00;;;7.10;99.90;;;;;;4946717;28;20050;-80
2022/02/23 01:36:08;;;;;;;6.35;1.35;;;7.60;99.90;;;;;;4981903;28;20057;-80
2022/02/23 01:38:34;;;;;;;6.38;1.48;;;6.80;99.90;;;;;;4961114;28;20031;-81
2022/02/23 01:41:01;;;;;;;6.40;1.20;;;6.90;99.90;;;;;;4972367;28;20020;-81
2022/02/23 01:43:28;;;;;;;4.03;1.17;;;6.90;99.90;;;;;;4972294;28;20023;-81
2022/02/23 01:45:54;;;;;;;7.75;1.40;;;6.80;99.90;;;;;;4954450;28;20073;-81
2022/02/23 01:48:19;;;;;;;4.93;1.60;;;6.70;99.90;;;;;;4955162;28;20035;-81
2022/02/23 01:50:45;;;;;;;5.95;0.73;;;6.70;99.90;;;;;;4954439;28;20037;-81
2022/02/23 01:53:11;;;;;;;7.57;1.33;;;6.80;99.90;;;;;;4971543;28;20027;-81
2022/02/23 01:55:37;;;;;;;6.63;1.20;;;6.60;99.90;;;;;;4972546;28;20030;-81
2022/02/23 01:58:04;;;;;;;6.80;0.90;;;6.50;99.90;;;;;;4972152;28;20039;-80
2022/02/23 02:00:29;;;;;;;3.95;1.23;;;6.60;99.90;;;;;;4971819;28;20038;-80
2022/02/23 02:02:55;;;;;;;8.55;1.10;;;7.00;99.90;;;;;;4971514;28;20039;-80
2022/02/23 02:05:21;;;;;;;7.53;1.65;;;6.70;99.90;;;;;;4954699;28;20042;-81
2022/02/23 02:07:46;;;;;;;7.05;0.80;;;7.70;99.90;;;;;;4954665;28;20050;-81
2022/02/23 02:10:12;;;;;;;4.65;1.20;;;6.60;99.90;;;;;;4972015;28;20051;-81
2022/02/23 02:12:38;;;;;;;6.00;1.33;;;7.10;99.90;;;;;;4971425;28;20407;-81
2022/02/23 02:15:05;;;;;;;4.30;0.90;;;6.60;99.90;;;;;;4972335;28;20035;-80
2022/02/23 02:17:30;;;;;;;5.15;1.33;;;6.70;99.90;;;;;;4972075;28;20038;-80
2022/02/23 02:19:56;;;;;;;6.57;1.42;;;6.70;99.90;;;;;;4971100;28;20041;-80
2022/02/23 02:22:22;;;;;;;5.85;1.00;;;6.80;99.90;;;;;;4971863;28;20046;-80
2022/02/23 02:24:48;;;;;;;7.25;1.35;;;7.20;99.90;;;;;;4972087;28;20038;-80
2022/02/23 02:27:15;;;;;;;4.18;1.17;;;6.70;99.90;;;;;;4972475;28;20471;-80
2022/02/23 02:29:42;;;;;;;15.25;1.40;;;6.70;99.90;;;;;;4973549;28;20448;-80
2022/02/23 02:32:09;;;;;;;6.05;0.90;;;6.70;99.90;;;;;;4974327;28;20062;-80
2022/02/23 02:34:35;;;;;;;7.70;1.48;;;6.60;99.90;;;;;;4973842;28;20022;-80
2022/02/23 02:37:01;;;;;;;5.47;1.20;;;7.10;99.90;;;;;;4975367;28;20475;-80
2022/02/23 02:39:27;;;;;;;9.40;1.20;;;6.60;99.90;;;;;;4955785;28;20463;-80
2022/02/23 02:41:53;;;;;;;6.70;1.45;;;6.50;99.90;;;;;;4972620;28;20503;-80
2022/02/23 02:44:19;;;;;;;8.43;1.60;;;6.30;99.90;;;;;;4972400;28;20046;-81
2022/02/23 02:46:45;;;;;;;4.88;1.15;;;6.40;99.90;;;;;;4956144;28;20122;-80
2022/02/23 02:49:12;;;;;;;7.53;1.38;;;6.80;99.90;;;;;;4974535;28;20376;-80
2022/02/23 02:51:38;;;;;;;7.95;1.50;;;6.30;99.90;;;;;;4975621;28;20105;-80
2022/02/23 02:54:07;;;;;;;2.78;0.85;;;6.40;99.90;;;;;;4975224;28;20039;-80
2022/02/23 02:56:33;;;;;;;4.95;1.13;;;6.60;99.90;;;;;;4975413;28;20031;-80
2022/02/23 02:59:00;;;;;;;3.80;1.52;;;6.40;99.90;;;;;;4974840;28;20031;-80
2022/02/23 03:01:28;;;;;;;4.63;1.23;;;6.40;99.90;;;;;;4979024;28;20096;-80
2022/02/23 03:03:53;;;;;;;10.25;1.60;;;6.50;99.90;;;;;;4984594;28;20027;-80
2022/02/23 03:06:19;;;;;;;7.72;1.73;;;6.40;99.90;;;;;;4983973;28;20452;-80
2022/02/23 03:08:46;;;;;;;10.07;1.35;;;6.40;99.90;;;;;;4981111;28;20035;-80
2022/02/23 03:11:13;;;;;;;7.30;1.13;;;6.40;99.90;;;;;;4976395;28;20031;-80
2022/02/23 03:13:39;;;;;;;4.70;0.90;;;6.30;99.90;;;;;;4975252;28;20027;-80
2022/02/23 03:16:06;;;;;;;4.20;0.95;;;6.20;99.90;;;;;;4975706;28;20061;-80
2022/02/23 03:18:32;;;;;;;7.72;1.10;;;6.70;99.90;;;;;;4974808;28;20031;-80
2022/02/23 03:20:58;;;;;;;6.72;1.02;;;6.90;99.90;;;;;;4975999;28;20166;-81
2022/02/23 03:23:24;;;;;;;4.30;1.20;;;6.20;99.90;;;;;;4974944;28;20058;-81
2022/02/23 03:25:50;;;;;;;6.15;1.60;;;6.20;99.90;;;;;;4957861;28;20039;-80
2022/02/23 03:28:16;;;;;;;4.88;1.38;;;6.30;99.90;;;;;;4975450;28;20151;-81
2022/02/23 03:30:42;;;;;;;5.93;1.05;;;7.00;99.90;;;;;;4974131;28;20086;-80
2022/02/23 03:33:11;;;;;;;6.10;1.10;;;6.10;99.90;;;;;;4974510;28;20054;-81
2022/02/23 03:35:38;;;;;;;5.15;1.15;;;6.50;99.90;;;;;;4975419;28;20049;-81
2022/02/23 03:38:04;;;;;;;4.65;1.30;;;6.00;99.90;;;;;;4957595;28;20039;-80
2022/02/23 03:40:30;;;;;;;3.45;1.30;;;6.80;99.90;;;;;;4973049;28;20067;-80
2022/02/23 03:42:56;;;;;;;5.78;1.10;;;6.10;99.90;;;;;;4976998;28;20041;-80
2022/02/23 03:45:22;;;;;;;6.03;1.40;;;7.20;99.90;;;;;;4983703;28;20039;-80
2022/02/23 03:47:48;;;;;;;3.85;0.95;;;5.90;99.90;;;;;;4984103;28;20038;-80
2022/02/23 03:50:14;;;;;;;8.82;1.13;;;6.80;99.90;;;;;;4983626;28;20062;-80
2022/02/23 03:52:40;;;;;;;2.72;0.93;;;5.80;99.90;;;;;;4982896;28;20031;-80
2022/02/23 03:55:08;;;;;;;5.63;1.65;;;5.70;99.90;;;;;;4982346;28;20101;-80
2022/02/23 03:57:34;;;;;;;5.55;0.88;;;5.50;99.90;;;;;;4973889;28;20026;-81
2022/02/23 03:59:59;;;;;;;3.38;1.20;;;5.90;99.90;;;;;;4972809;28;20030;-80
2022/02/23 04:02:25;;;;;;;4.82;1.13;;;5.60;99.90;;;;;;4973143;28;20038;-80
2022/02/23 04:04:51;;;;;;;6.38;1.40;;;5.70;99.90;;;;;;4972616;28;20035;-80
2022/02/23 04:07:17;;;;;;;3.15;1.23;;;5.70;99.90;;;;;;4973877;28;20031;-80
2022/02/23 04:09:43;;;;;;;5.28;1.15;;;5.70;99.90;;;;;;4972702;28;20082;-80
2022/02/23 04:12:09;;;;;;;7.10;1.35;;;5.70;99.90;;;;;;4955839;28;20033;-80
2022/02/23 04:14:36;;;;;;;5.88;1.25;;;5.60;99.90;;;;;;4973396;28;20030;-80
2022/02/23 04:17:02;;;;;;;9.30;1.48;;;5.50;99.90;;;;;;4973432;28;20054;-81
2022/02/23 04:19:28;;;;;;;6.38;1.90;;;5.50;99.90;;;;;;4972247;28;20442;-81
2022/02/23 04:21:53;;;;;;;5.85;1.50;;;5.00;99.90;;;;;;4972046;28;20031;-79
2022/02/23 04:24:19;;;;;;;4.72;1.50;;;4.90;99.90;;;;;;4973278;28;20031;-80
2022/02/23 04:26:44;;;;;;;3.78;1.13;;;5.00;99.90;;;;;;4973671;28;20046;-80
2022/02/23 04:29:10;;;;;;;3.58;1.50;;;5.00;99.90;;;;;;4972812;28;20037;-80
2022/02/23 04:31:36;;;;;;;2.88;1.15;;;4.70;99.90;;;;;;4956965;28;20039;-80
2022/02/23 04:34:03;;;;;;;4.05;1.33;;;4.50;99.90;;;;;;4970411;28;20030;-80
2022/02/23 04:36:29;;;;;;;4.32;1.30;;;4.30;99.90;;;;;;4973059;28;20403;-80
2022/02/23 04:38:54;;;;;;;5.50;1.40;;;4.50;99.90;;;;;;4971760;28;20060;-80
2022/02/23 04:41:20;;;;;;;9.85;2.75;;;5.00;99.90;;;;;;4955821;28;20108;-80
2022/02/23 04:43:46;;;;;;;6.53;2.35;;;5.30;99.90;;;;;;4972117;28;20459;-80
2022/02/23 04:46:12;;;;;;;3.78;1.77;;;4.30;99.90;;;;;;4972967;28;20049;-80
2022/02/23 04:48:41;;;;;;;9.48;2.00;;;4.00;99.90;;;;;;4971927;28;20039;-80
2022/02/23 04:51:07;;;;;;;7.25;2.88;;;5.40;99.90;;;;;;4974674;28;20085;-80
2022/02/23 04:53:33;;;;;;;4.30;2.50;;;4.40;99.90;;;;;;4977958;28;20035;-80
2022/02/23 04:55:58;;;;;;;9.15;1.90;;;4.50;99.90;;;;;;4974379;28;20037;-80
2022/02/23 04:58:24;;;;;;;6.32;1.73;;;4.50;99.90;;;;;;4960799;28;20049;-79
2022/02/23 05:00:50;;;;;;;7.55;1.77;;;5.40;99.90;;;;;;4973543;28;20035;-80
2022/02/23 05:03:15;;;;;;;6.07;2.08;;;4.20;99.90;;;;;;4971585;28;20031;-80
2022/02/23 05:05:42;;;;;;;7.22;2.75;;;4.20;99.90;;;;;;4971626;28;20096;-80
2022/02/23 05:08:08;;;;;;;6.38;2.85;;;4.50;99.90;;;;;;4972509;28;20027;-80
2022/02/23 05:10:34;;;;;;;6.90;3.05;;;3.80;99.90;;;;;;4953715;28;20041;-80
2022/02/23 05:12:59;;;;;;;7.20;2.55;;;3.70;99.90;;;;;;4972138;28;20106;-80
2022/02/23 05:15:26;;;;;;;8.35;2.83;;;4.60;99.90;;;;;;4971559;28;20495;-80
2022/02/23 05:17:51;;;;;;;7.80;2.67;;;4.50;99.90;;;;;;4972066;28;20035;-80
2022/02/23 05:20:20;;;;;;;11.50;2.85;;;3.60;99.90;;;;;;4954453;28;20130;-81
2022/02/23 05:22:48;;;;;;;8.38;3.55;;;3.50;99.90;;;;;;4971599;28;20117;-80
2022/02/23 05:25:15;;;;;;;13.75;3.13;;;4.20;99.90;;;;;;4972053;28;20118;-80
2022/02/23 05:27:41;;;;;;;10.38;4.15;;;3.90;99.90;;;;;;4971630;28;20110;-80
2022/02/23 05:30:08;;;;;;;13.48;5.97;;;4.10;99.90;;;;;;4971174;28;20055;-80
2022/02/23 05:32:34;;;;;;;11.35;5.97;;;4.00;99.90;;;;;;4972342;28;20436;-80
2022/02/23 05:35:00;;;;;;;14.27;6.78;;;3.80;99.90;;;;;;4954863;28;20023;-80
2022/02/23 05:37:26;;;;;;;10.90;6.25;;;3.80;99.90;;;;;;4955151;28;20096;-80
2022/02/23 05:39:51;;;;;;;15.57;7.63;;;4.90;99.90;;;;;;4971611;28;20031;-80
2022/02/23 05:42:17;;;;;;;18.88;7.43;;;5.10;99.90;;;;;;4954704;28;20063;-80
2022/02/23 05:44:43;;;;;;;15.05;7.28;;;3.50;99.90;;;;;;4972497;28;20031;-80
2022/02/23 05:47:08;;;;;;;22.27;11.50;;;3.50;99.90;;;;;;4978123;28;20122;-80
2022/02/23 05:49:34;;;;;;;16.02;8.32;;;3.60;99.90;;;;;;4964615;28;20019;-80
2022/02/23 05:51:59;;;;;;;17.85;7.72;;;3.50;99.90;;;;;;4982959;28;20034;-80
2022/02/23 05:54:25;;;;;;;15.45;7.75;;;3.60;99.90;;;;;;4964269;28;20066;-80
2022/02/23 05:56:51;;;;;;;13.63;6.15;;;3.60;99.90;;;;;;4980444;28;20042;-80
2022/02/23 05:59:16;;;;;;;12.07;6.15;;;3.40;99.90;;;;;;4974575;28;20042;-80
2022/02/23 06:01:42;;;;;;;13.48;5.47;;;3.60;99.90;;;;;;4971847;28;20038;-80
2022/02/23 06:04:08;;;;;;;15.77;6.15;;;3.50;99.90;;;;;;4971963;28;20031;-80
2022/02/23 06:06:33;;;;;;;12.27;6.55;;;3.50;99.90;;;;;;4954167;28;20394;-80
2022/02/23 06:08:59;;;;;;;12.45;5.97;;;3.40;99.90;;;;;;4971654;28;20038;-80
2022/02/23 06:11:25;;;;;;;12.15;5.45;;;4.00;99.90;;;;;;4973554;28;20031;-81
2022/02/23 06:13:51;;;;;;;14.50;5.85;;;3.70;99.90;;;;;;4968462;28;20034;-81
2022/02/23 06:16:22;;;;;;;18.10;7.85;;;3.50;99.90;;;;;;4973867;28;20046;-81
2022/02/23 06:18:48;;;;;;;15.60;7.30;;;3.50;99.90;;;;;;4974015;28;20562;-81
2022/02/23 06:21:14;;;;;;;15.77;6.93;;;3.60;99.90;;;;;;4974062;28;20760;-81
2022/02/23 06:23:40;;;;;;;14.75;7.03;;;3.80;99.90;;;;;;4977745;28;20027;-81
2022/02/23 06:26:06;;;;;;;15.88;7.10;;;3.70;99.90;;;;;;4978456;28;20027;-81
2022/02/23 06:28:33;;;;;;;15.38;5.53;;;3.70;99.90;;;;;;4975310;28;20057;-81
2022/02/23 06:30:59;;;;;;;17.30;6.80;;;3.60;99.90;;;;;;4977072;28;20034;-81
2022/02/23 06:33:25;;;;;;;15.73;5.95;;;4.10;99.90;;;;;;4976825;28;20425;-81
2022/02/23 06:35:52;;;;;;;11.65;5.80;;;3.90;99.90;;;;;;4976005;28;20080;-81
2022/02/23 06:38:18;;;;;;;13.27;6.57;;;4.40;99.90;;;;;;4975747;28;20462;-81
2022/02/23 06:40:45;;;;;;;19.63;7.60;;;4.10;99.90;;;;;;4975853;28;20065;-81
2022/02/23 06:43:15;;;;;;;17.20;7.35;;;4.20;99.90;;;;;;4976607;28;20034;-80
2022/02/23 06:45:43;;;;;;;17.02;6.63;;;4.30;99.90;;;;;;4975417;28;20435;-80
2022/02/23 06:48:08;;;;;;;10.25;6.75;;;4.20;99.90;;;;;;4975862;28;20023;-80
2022/02/23 06:50:34;;;;;;;16.65;7.85;;;4.20;99.90;;;;;;4974841;28;20038;-81
2022/02/23 06:52:59;;;;;;;19.70;8.77;;;4.20;99.90;;;;;;4974813;28;20041;-80
2022/02/23 06:55:25;;;;;;;15.93;8.73;;;4.30;99.90;;;;;;4976163;28;20031;-79
2022/02/23 06:57:51;;;;;;;19.63;9.40;;;4.30;99.90;;;;;;4947680;28;20492;-79
2022/02/23 07:00:17;;;;;;;18.88;8.88;;;4.30;99.90;;;;;;4968987;28;20106;-79
2022/02/23 07:02:43;;;;;;;16.88;9.20;;;4.30;99.90;;;;;;4975856;28;20030;-79
2022/02/23 07:05:09;;;;;;;17.90;9.00;;;4.40;99.90;;;;;;4979747;28;20027;-80
2022/02/23 07:07:34;;;;;;;21.83;9.32;;;4.50;99.90;;;;;;4979426;28;20027;-80
2022/02/23 07:10:00;;;;;;;18.92;10.18;;;5.60;99.90;;;;;;4976553;28;20061;-80
2022/02/23 07:12:26;;;;;;;18.92;9.52;;;5.20;99.90;;;;;;4980193;28;20023;-79
2022/02/23 07:14:51;;;;;;;17.23;9.23;;;4.80;99.90;;;;;;4969665;28;20051;-79
2022/02/23 07:17:17;;;;;;;15.88;8.93;;;4.80;99.90;;;;;;4990157;28;20046;-79
2022/02/23 07:19:43;;;;;;;18.40;9.38;;;4.80;99.90;;;;;;4988961;28;20067;-79
2022/02/23 07:22:08;;;;;;;17.08;9.65;;;4.90;99.90;;;;;;4963436;28;20064;-80
2022/02/23 07:24:35;;;;;;;20.08;11.27;;;5.00;99.90;;;;;;4961932;28;20081;-80
2022/02/23 07:27:01;;;;;;;16.65;9.75;;;5.30;99.90;;;;;;4978863;28;20037;-80
2022/02/23 07:29:27;;;;;;;19.60;10.27;;;5.30;99.90;;;;;;4979189;28;20106;-80
2022/02/23 07:31:52;;;;;;;25.90;11.43;;;5.40;99.90;;;;;;4980033;28;20034;-80
2022/02/23 07:34:18;;;;;;;19.77;11.73;;;5.70;99.90;;;;;;4977497;28;20041;-80
2022/02/23 07:36:44;;;;;;;20.52;11.57;;;5.80;99.90;;;;;;4978294;28;20132;-80
2022/02/23 07:39:10;;;;;;;17.55;11.95;;;6.70;99.90;;;;;;4977833;28;20018;-80
2022/02/23 07:41:36;;;;;;;22.92;11.93;;;6.00;99.90;;;;;;4980478;28;20042;-81
2022/02/23 07:44:02;;;;;;;19.60;10.98;;;6.20;99.90;;;;;;4980938;28;20031;-81
2022/02/23 07:46:28;;;;;;;18.95;11.60;;;6.30;99.90;;;;;;4977769;28;20076;-80
2022/02/23 07:48:58;;;;;;;21.75;11.13;;;6.40;99.90;;;;;;4975103;28;20023;-81
2022/02/23 07:51:25;;;;;;;16.10;9.88;;;6.50;99.90;;;;;;4978662;28;20031;-81
2022/02/23 07:53:52;;;;;;;17.85;9.00;;;6.80;99.90;;;;;;4978994;28;20053;-81
2022/02/23 07:56:21;;;;;;;16.77;8.27;;;7.30;99.90;;;;;;4977353;28;20042;-80
2022/02/23 07:58:47;;;;;;;17.50;6.88;;;7.30;99.90;;;;;;4975017;28;20023;-80
2022/02/23 08:01:34;;;;;;;13.68;6.50;;;6.50;99.90;;;;;;4976499;28;20413;-80
2022/02/23 08:04:01;;;;;;;19.35;7.53;;;6.60;99.90;;;;;;4956242;28;20031;-79
2022/02/23 08:06:27;;;;;;;13.40;5.70;;;6.80;99.90;;;;;;4974672;28;20045;-79
2022/02/23 08:08:56;;;;;;;13.13;6.13;;;6.80;99.90;;;;;;4957976;28;20027;-80
2022/02/23 08:11:23;;;;;;;13.27;7.05;;;6.90;99.90;;;;;;4976054;28;20037;-79
2022/02/23 08:13:51;;;;;;;11.75;6.10;;;6.90;99.90;;;;;;4977260;28;20019;-80
2022/02/23 08:21:55;;;;;;;10.80;6.65;;;7.20;99.90;;;;;;4977212;28;20042;-80
2022/02/23 08:24:22;;;;;;;16.15;4.97;;;7.30;99.90;;;;;;4978070;28;20045;-79
2022/02/23 08:26:48;;;;;;;12.30;4.70;;;8.70;99.90;;;;;;4977441;28;20141;-80
2022/02/23 08:29:13;;;;;;;7.38;4.20;;;7.40;99.90;;;;;;4976884;28;20019;-79
2022/02/23 08:31:39;;;;;;;7.32;4.20;;;8.50;99.90;;;;;;4976573;28;20376;-80
2022/02/23 08:34:05;;;;;;;8.05;3.65;;;7.60;99.90;;;;;;4959944;28;20403;-79
2022/02/23 08:36:30;;;;;;;9.10;3.92;;;8.00;99.90;;;;;;4956339;28;20027;-80
2022/02/23 08:38:56;;;;;;;8.13;3.38;;;7.70;99.90;;;;;;4973789;28;20061;-81
2022/02/23 08:41:24;;;;;;;9.85;3.55;;;8.20;99.90;;;;;;4974422;28;20031;-81
2022/02/23 08:43:50;;;;;;;6.65;3.03;;;8.50;99.90;;;;;;4974728;28;20019;-80
2022/02/23 08:46:16;;;;;;;7.22;2.63;;;9.30;99.90;;;;;;4947845;28;20086;-81
2022/02/23 08:48:41;;;;;;;4.68;2.30;;;10.10;99.90;;;;;;4954940;29;20419;-79
2022/02/23 08:51:07;;;;;;;5.22;2.20;;;11.50;99.90;;;;;;4973350;28;20031;-80
2022/02/23 08:53:33;;;;;;;5.40;2.25;;;12.20;99.90;;;;;;4974792;28;20034;-80
2022/02/23 08:55:59;;;;;;;5.75;2.10;;;12.60;99.90;;;;;;4974148;28;20462;-83
2022/02/23 08:58:24;;;;;;;6.90;2.03;;;13.40;99.90;;;;;;4972437;28;20658;-80
2022/02/23 09:00:51;;;;;;;2.65;1.50;;;14.50;99.90;;;;;;4972596;28;20101;-80
2022/02/23 09:03:21;;;;;;;6.07;1.55;;;14.90;99.90;;;;;;4972376;28;20501;-79
2022/02/23 09:05:47;;;;;;;5.65;1.80;;;14.60;99.90;;;;;;4971954;28;20556;-79
2022/02/23 09:08:13;;;;;;;4.43;1.58;;;14.80;99.90;;;;;;5050664;28;20028;-79
2022/02/23 09:10:39;;;;;;;3.38;1.25;;;14.80;99.90;;;;;;4987423;28;20027;-79
2022/02/23 09:13:06;;;;;;;5.60;1.73;;;15.60;99.90;;;;;;4971477;28;20456;-79
2022/02/23 09:15:32;;;;;;;4.90;1.20;;;14.10;99.90;;;;;;4972039;28;20026;-79
2022/02/23 09:17:58;;;;;;;6.20;1.20;;;13.80;99.90;;;;;;4971652;28;20088;-78
2022/02/23 09:20:23;;;;;;;3.10;1.17;;;13.40;99.90;;;;;;4970996;28;20037;-81
2022/02/23 09:22:49;;;;;;;3.35;1.52;;;13.30;99.90;;;;;;4954288;28;20043;-79
2022/02/23 09:25:15;;;;;;;5.30;1.90;;;13.20;99.90;;;;;;4971319;28;20868;-79
2022/02/23 09:27:40;;;;;;;6.28;1.40;;;11.60;99.90;;;;;;4971245;28;20034;-79
2022/02/23 09:30:12;;;;;;;5.25;1.50;;;11.20;99.90;;;;;;4970842;28;20026;-79
2022/02/23 09:32:39;;;;;;;4.82;1.58;;;10.10;99.90;;;;;;4954747;28;20023;-79
2022/02/23 09:35:05;;;;;;;5.70;1.50;;;9.90;99.90;;;;;;4986206;28;20061;-78
2022/02/23 09:37:31;;;;;;;8.57;1.70;;;9.80;99.90;;;;;;4967804;28;20066;-79
2022/02/23 09:39:57;;;;;;;6.22;1.83;;;9.60;99.90;;;;;;4978017;28;20031;-79
2022/02/23 09:42:28;;;;;;;5.75;1.75;;;9.90;99.90;;;;;;4986962;28;20038;-79
2022/02/23 09:45:01;;;;;;;9.73;1.60;;;10.80;99.90;;;;;;4979560;28;20023;-79
2022/02/23 09:47:30;;;;;;;5.63;1.70;;;9.90;99.90;;;;;;4980147;28;20031;-79
2022/02/23 09:49:56;;;;;;;4.35;1.85;;;10.30;99.90;;;;;;4980349;28;20034;-79
2022/02/23 09:52:24;;;;;;;11.73;1.77;;;11.60;99.90;;;;;;4981670;28;20031;-79
2022/02/23 09:54:57;;;;;;;4.03;1.27;;;13.60;99.90;;;;;;4988578;28;20019;-78
2022/02/23 09:57:23;;;;;;;4.72;1.33;;;14.60;99.90;;;;;;4971474;28;20031;-78
2022/02/23 09:59:49;;;;;;;6.63;1.63;;;14.20;99.90;;;;;;4971179;28;20045;-79
2022/02/23 10:02:15;;;;;;;5.95;1.67;;;13.80;99.90;;;;;;4978760;28;20070;-79
2022/02/23 10:04:41;;;;;;;4.25;1.10;;;14.90;99.90;;;;;;4972666;28;20050;-79
2022/02/23 10:07:08;;;;;;;7.28;1.38;;;15.80;99.90;;;;;;4977661;28;20031;-79
2022/02/23 10:09:41;;;;;;;8.98;1.50;;;17.40;99.90;;;;;;4977741;28;20027;-79
2022/02/23 10:12:07;;;;;;;6.25;1.27;;;18.20;99.90;;;;;;4978487;28;20114;-79
2022/02/23 10:14:33;;;;;;;6.70;1.48;;;19.50;95.20;;;;;;4978658;28;20043;-78
2022/02/23 10:16:58;;;;;;;5.88;1.60;;;20.30;97.50;;;;;;4963799;28;20046;-79
2022/02/23 10:19:24;;;;;;;7.43;1.75;;;20.40;95.20;;;;;;4958706;28;20038;-79
2022/02/23 10:21:59;;;;;;;3.33;1.23;;;20.40;91.90;;;;;;4971991;28;20094;-78
2022/02/23 10:24:36;;;;;;;5.40;1.40;;;22.40;85.80;;;;;;4975238;28;20407;-79
2022/02/23 10:27:06;;;;;;;6.28;1.45;;;22.50;75.30;;;;;;4958714;28;20165;-78
2022/02/23 10:29:45;;;;;;;3.92;1.15;;;21.60;71.60;;;;;;4980643;28;20023;-80
2022/02/23 10:32:12;;;;;;;5.53;1.88;;;21.70;73.50;;;;;;4982009;28;20027;-79
2022/02/23 10:34:46;;;;;;;5.30;1.30;;;23.00;70.20;;;;;;4967547;28;20027;-79
2022/02/23 10:37:14;;;;;;;5.20;1.42;;;23.30;68.00;;;;;;4982366;28;20031;-79
2022/02/23 10:39:54;;;;;;;7.78;1.30;;;23.40;66.80;;;;;;4979532;28;20470;-80
2022/02/23 10:42:26;;;;;;;5.22;1.00;;;24.10;63.00;;;;;;4982839;28;20042;-79
2022/02/23 10:44:53;;;;;;;3.97;1.15;;;24.30;63.60;;;;;;4981550;28;20035;-80
2022/02/23 10:47:33;;;;;;;4.95;1.30;;;24.70;65.80;;;;;;4981734;28;20042;-80
2022/02/23 10:50:02;;;;;;;3.83;1.20;;;24.60;60.10;;;;;;4979406;28;20113;-80
2022/02/23 10:52:36;;;;;;;4.03;1.30;;;24.30;61.40;;;;;;4978450;28;20379;-79
2022/02/23 10:55:23;;;;;;;4.80;1.42;;;23.10;66.70;;;;;;4979743;28;20049;-80
2022/02/23 10:57:57;;;;;;;9.65;2.00;;;22.90;66.50;;;;;;4974953;28;20503;-83
2022/02/23 11:00:24;;;;;;;6.30;2.13;;;21.20;65.90;;;;;;4976238;28;20030;-80
2022/02/23 11:02:50;;;;;;;4.97;1.33;;;21.10;70.70;;;;;;4975388;28;20118;-80
2022/02/23 11:05:22;;;;;;;5.63;1.60;;;20.30;69.80;;;;;;4976005;28;20033;-79
2022/02/23 11:07:49;;;;;;;3.88;1.30;;;20.00;73.70;;;;;;4974167;28;20031;-77
2022/02/23 11:10:15;;;;;;;4.47;1.23;;;19.20;71.20;;;;;;4973940;28;20037;-77
2022/02/23 11:12:48;;;;;;;3.65;1.35;;;20.70;77.90;;;;;;4956453;28;20035;-78
2022/02/23 11:15:16;;;;;;;6.90;1.80;;;19.30;72.70;;;;;;4973034;28;20030;-79
2022/02/23 11:17:46;;;;;;;8.88;1.35;;;19.10;72.90;;;;;;4974248;28;20031;-79
2022/02/23 11:20:18;;;;;;;6.90;1.42;;;19.40;68.30;;;;;;4972915;28;20081;-79
2022/02/23 11:22:56;;;;;;;5.90;1.17;;;20.30;66.30;;;;;;4974195;28;20027;-79
2022/02/23 11:25:23;;;;;;;6.78;1.20;;;21.00;64.30;;;;;;4954896;29;20035;-80
2022/02/23 11:27:53;;;;;;;6.63;1.33;;;22.00;63.70;;;;;;4922609;29;20035;-78
2022/02/23 11:30:20;;;;;;;4.22;1.20;;;22.70;62.40;;;;;;4953513;28;20032;-78
2022/02/23 11:32:46;;;;;;;5.72;1.45;;;21.30;65.00;;;;;;4955245;29;20032;-80
2022/02/23 11:35:12;;;;;;;7.00;1.25;;;21.00;62.50;;;;;;4955905;29;20032;-79
2022/02/23 11:37:40;;;;;;;5.30;1.10;;;21.50;63.60;;;;;;4969485;28;20034;-80
2022/02/23 11:40:08;;;;;;;6.18;1.45;;;20.80;62.70;;;;;;4975542;28;20181;-80
2022/02/23 11:42:35;;;;;;;6.50;1.30;;;20.30;66.40;;;;;;4960091;28;20042;-79
2022/02/23 11:45:13;;;;;;;5.05;1.25;;;20.60;66.90;;;;;;4943331;28;20031;-80
2022/02/23 11:48:04;;;;;;;5.00;1.45;;;21.20;65.90;;;;;;4979057;28;20082;-81
2022/02/23 11:57:33;;;;;;;4.93;1.13;;;22.00;60.00;;;;;;4980163;28;20053;-80
2022/02/23 12:00:18;;;;;;;6.07;1.10;;;20.10;63.70;;;;;;4985495;28;20054;-81
2022/02/23 12:03:08;;;;;;;6.53;1.25;;;20.90;62.90;;;;;;4977702;28;20062;-79
2022/02/23 12:05:55;;;;;;;5.68;2.42;;;22.00;66.90;;;;;;4958426;29;20093;-80
2022/02/23 12:08:37;;;;;;;5.35;2.00;;;23.00;59.00;;;;;;4956311;29;20039;-81
2022/02/23 12:13:58;;;;;;;7.57;1.30;;;23.00;58.80;;;;;;4974922;28;20034;-81
2022/02/23 12:16:28;;;;;;;5.07;1.23;;;23.00;62.00;;;;;;4956047;28;20026;-82
2022/02/23 12:18:59;;;;;;;4.53;1.20;;;21.60;63.60;;;;;;4972994;28;20109;-81
2022/02/23 12:21:46;;;;;;;5.72;1.63;;;21.90;63.90;;;;;;4971018;28;20019;-82
2022/02/23 12:24:16;;;;;;;5.60;1.27;;;22.50;57.50;;;;;;4975596;28;20543;-82
2022/02/23 12:26:43;;;;;;;3.20;1.08;;;23.00;58.00;;;;;;4977038;28;20027;-81
2022/02/23 12:29:11;;;;;;;4.22;1.02;;;23.70;56.90;;;;;;4962883;28;20022;-81
2022/02/23 12:31:39;;;;;;;3.92;0.88;;;23.30;55.70;;;;;;4982530;28;20023;-82
2022/02/23 12:34:36;;;;;;;4.22;1.20;;;22.80;55.50;;;;;;4978205;28;20035;-81
2022/02/23 12:37:03;;;;;;;3.45;0.90;;;23.20;56.70;;;;;;4978536;28;20031;-82
2022/02/23 12:39:30;;;;;;;6.32;1.92;;;22.50;57.20;;;;;;4961617;28;20448;-81
2022/02/23 12:42:00;;;;;;;3.63;0.90;;;22.30;54.60;;;;;;4956984;28;20491;-81
2022/02/23 12:44:27;;;;;;;7.72;1.38;;;21.30;56.50;;;;;;4969298;28;20062;-80
2022/02/23 12:46:58;;;;;;;5.93;0.90;;;21.10;58.60;;;;;;4973548;28;20035;-82
2022/02/23 12:49:24;;;;;;;4.57;1.20;;;20.10;57.70;;;;;;4970313;28;20029;-82
2022/02/23 12:51:52;;;;;;;7.22;1.73;;;20.30;63.80;;;;;;4956304;28;20134;-80
2022/02/23 12:54:24;;;;;;;5.32;1.10;;;20.70;58.20;;;;;;4956569;29;20468;-80
2022/02/23 12:56:52;;;;;;;4.28;1.00;;;20.90;55.00;;;;;;4969020;28;20029;-82
2022/02/23 12:59:20;;;;;;;2.10;1.00;;;21.40;56.70;;;;;;4975108;28;20030;-82
2022/02/23 13:01:54;;;;;;;2.80;1.10;;;20.60;57.90;;;;;;4956877;28;20105;-81
2022/02/23 13:04:35;;;;;;;7.25;1.25;;;20.00;60.90;;;;;;4948530;28;20030;-80
2022/02/23 13:07:03;;;;;;;4.25;1.23;;;19.70;61.60;;;;;;4970614;28;20114;-82